WXM80 ListenWXM80 Stop

You find our weather info also at:

UK Metoffice

WeatherCloud

Weather Underground

Northeastern Weather Network

AWEKAS

Citizen Weather Observer Program (CWOP)

HAMweather, WeatherForYou, PWS Weather


Weather Underground History page Text

Daily Summary for May 29, 2016 Units:  English    Metric   Both
« Previous Day
Next Day »
Daily Weekly Monthly Yearly Custom
  High: Low: Average:
Temperature: 89.7 °F 67.6 °F 76.7 °F
Dew Point: 69.9 °F 50.4 °F 62.4 °F
Humidity: 93 % 34 % 63 %
Wind Speed: 7.5 mph 0.0 mph 1.7 mph
Wind Gust: 12.7 mph - -
Wind:- - South
Pressure: 30.11 in 30.03 in -
Precipitation: 0.00 in    
Historical Graphs
 
 
Tabular Data for May 29, 2016
Time Temperature Dew Point Pressure Wind Wind Speed Wind Gust Humidity Rainfall Rate (Hourly)
00:04 74.4 °F 59.1 °F 30.09 in SSW 1.9 mph 6.0 mph 59 % 0.00 in
00:09 74.3 °F 58.6 °F 30.09 in SSW 3.2 mph 5.8 mph 58 % 0.00 in
00:14 74.3 °F 58.1 °F 30.09 in SSW 2.6 mph 4.6 mph 57 % 0.00 in
00:19 74.3 °F 58.1 °F 30.09 in SW 2.6 mph 8.1 mph 57 % 0.00 in
00:25 74.2 °F 57.5 °F 30.09 in WSW 2.3 mph 6.9 mph 56 % 0.00 in
00:30 74.1 °F 56.9 °F 30.09 in SSW 2.2 mph 4.6 mph 55 % 0.00 in
00:35 74.0 °F 56.8 °F 30.09 in SW 2.0 mph 5.0 mph 55 % 0.00 in
00:40 74.0 °F 56.3 °F 30.09 in SW 1.9 mph 3.5 mph 54 % 0.00 in
00:45 73.8 °F 55.6 °F 30.10 in SW 5.7 mph 12.0 mph 53 % 0.00 in
00:50 73.8 °F 55.1 °F 30.10 in SSW 3.0 mph 4.6 mph 52 % 0.00 in
00:55 73.7 °F 54.4 °F 30.10 in SSW 3.0 mph 5.8 mph 51 % 0.00 in
01:00 73.5 °F 54.3 °F 30.10 in SW 1.9 mph 4.6 mph 51 % 0.00 in
01:05 73.5 °F 53.7 °F 30.10 in WSW 3.0 mph 6.9 mph 50 % 0.00 in
01:10 73.3 °F 53.0 °F 30.10 in West 2.9 mph 4.0 mph 49 % 0.00 in
01:16 73.2 °F 52.3 °F 30.10 in West 1.6 mph 3.5 mph 48 % 0.00 in
01:21 73.1 °F 52.2 °F 30.10 in WSW 3.0 mph 4.6 mph 48 % 0.00 in
01:26 73.0 °F 52.1 °F 30.10 in SW 2.7 mph 3.5 mph 48 % 0.00 in
01:31 72.8 °F 52.0 °F 30.10 in SSW 0.7 mph 4.0 mph 48 % 0.00 in
01:36 72.7 °F 51.9 °F 30.10 in SW 3.5 mph 8.1 mph 48 % 0.00 in
01:41 72.6 °F 51.8 °F 30.10 in SW 1.4 mph 3.5 mph 48 % 0.00 in
01:46 72.5 °F 51.7 °F 30.10 in SSW 2.5 mph 4.0 mph 48 % 0.00 in
01:51 72.4 °F 51.6 °F 30.10 in WSW 3.3 mph 5.0 mph 48 % 0.00 in
01:56 72.3 °F 51.5 °F 30.10 in SW 0.4 mph 3.5 mph 48 % 0.00 in
02:02 72.2 °F 50.8 °F 30.10 in SW 1.5 mph 3.5 mph 47 % 0.00 in
02:07 72.1 °F 51.3 °F 30.09 in SW 2.0 mph 3.5 mph 48 % 0.00 in
02:12 72.0 °F 51.2 °F 30.09 in WSW 0.6 mph 2.3 mph 48 % 0.00 in
02:17 71.9 °F 50.6 °F 30.09 in WSW 0.9 mph 2.3 mph 47 % 0.00 in
02:22 71.8 °F 50.5 °F 30.09 in SW 3.0 mph 5.8 mph 47 % 0.00 in
02:27 71.7 °F 50.4 °F 30.09 in South 2.3 mph 3.5 mph 47 % 0.00 in
02:32 71.5 °F 50.8 °F 30.09 in SW 2.0 mph 3.5 mph 48 % 0.00 in
02:37 71.5 °F 50.8 °F 30.09 in SW 1.0 mph 5.8 mph 48 % 0.00 in
02:42 71.4 °F 51.2 °F 30.09 in SW 0.5 mph 2.3 mph 49 % 0.00 in
02:47 71.3 °F 51.1 °F 30.09 in SW 2.2 mph 5.0 mph 49 % 0.00 in
02:53 71.2 °F 51.6 °F 30.09 in WSW 1.7 mph 5.8 mph 50 % 0.00 in
02:58 71.1 °F 52.0 °F 30.09 in SW 2.2 mph 3.5 mph 51 % 0.00 in
03:03 71.0 °F 52.0 °F 30.09 in SW 1.1 mph 3.5 mph 51 % 0.00 in
03:08 71.0 °F 52.5 °F 30.09 in West 1.0 mph 4.0 mph 52 % 0.00 in
03:18 70.7 °F 52.7 °F 30.09 in SW 0.3 mph 1.2 mph 53 % 0.00 in
03:23 70.6 °F 53.1 °F 30.09 in Calm   1.2 mph 54 % 0.00 in
03:28 70.5 °F 53.6 °F 30.09 in Calm     55 % 0.00 in
03:33 70.4 °F 53.5 °F 30.09 in Calm   1.2 mph 55 % 0.00 in
03:38 70.3 °F 53.4 °F 30.09 in SW 0.1 mph   55 % 0.00 in
03:44 70.1 °F 53.7 °F 30.09 in WSW 1.7 mph 3.5 mph 56 % 0.00 in
03:49 70.0 °F 54.1 °F 30.09 in South 0.2 mph 2.3 mph 57 % 0.00 in
03:54 69.9 °F 54.4 °F 30.09 in South 0.1 mph 2.3 mph 58 % 0.00 in
03:59 69.8 °F 54.4 °F 30.09 in South 0.1 mph 1.2 mph 58 % 0.00 in
04:04 69.6 °F 54.6 °F 30.09 in South 0.2 mph 1.2 mph 59 % 0.00 in
04:09 69.5 °F 55.0 °F 30.09 in Calm     60 % 0.00 in
04:14 69.4 °F 54.9 °F 30.09 in Calm     60 % 0.00 in
04:19 69.3 °F 55.3 °F 30.08 in South 0.4 mph 1.2 mph 61 % 0.00 in
04:24 69.1 °F 55.1 °F 30.08 in South 0.9 mph 2.3 mph 61 % 0.00 in
04:29 69.0 °F 55.0 °F 30.08 in South 0.3 mph 1.2 mph 61 % 0.00 in
04:35 68.9 °F 55.3 °F 30.08 in WSW 1.4 mph 3.5 mph 62 % 0.00 in
04:40 68.7 °F 56.0 °F 30.08 in WSW 0.2 mph 1.2 mph 64 % 0.00 in
04:45 68.6 °F 56.4 °F 30.08 in Calm     65 % 0.00 in
04:50 68.5 °F 56.3 °F 30.08 in WSW 0.7 mph 2.3 mph 65 % 0.00 in
04:55 68.3 °F 56.1 °F 30.09 in WSW 0.5 mph 2.3 mph 65 % 0.00 in
05:00 68.2 °F 56.0 °F 30.09 in SW 1.1 mph 2.3 mph 65 % 0.00 in
05:05 68.0 °F 55.8 °F 30.09 in South 1.0 mph 2.3 mph 65 % 0.00 in
05:10 67.9 °F 56.1 °F 30.09 in South 0.2 mph 1.2 mph 66 % 0.00 in
05:15 67.8 °F 56.0 °F 30.09 in South 0.3 mph 1.2 mph 66 % 0.00 in
05:20 67.7 °F 55.9 °F 30.09 in SW 0.2 mph 1.2 mph 66 % 0.00 in
05:26 67.7 °F 55.9 °F 30.09 in Calm   2.3 mph 66 % 0.00 in
05:31 67.6 °F 55.8 °F 30.10 in SW 0.1 mph 1.0 mph 66 % 0.00 in
05:36 67.6 °F 56.2 °F 30.09 in SW 0.1 mph 3.5 mph 67 % 0.00 in
05:41 67.6 °F 56.2 °F 30.10 in SW 0.3 mph 2.3 mph 67 % 0.00 in
05:46 67.6 °F 56.2 °F 30.10 in SW 1.7 mph 3.5 mph 67 % 0.00 in
05:51 67.6 °F 56.2 °F 30.10 in WSW 2.1 mph 5.8 mph 67 % 0.00 in
05:56 67.6 °F 56.2 °F 30.10 in SW 2.3 mph 3.5 mph 67 % 0.00 in
06:01 67.7 °F 56.8 °F 30.10 in SW 0.3 mph 2.3 mph 68 % 0.00 in
06:06 67.7 °F 57.2 °F 30.10 in WSW 2.2 mph 3.5 mph 69 % 0.00 in
06:11 67.8 °F 56.9 °F 30.09 in SW 1.0 mph 3.5 mph 68 % 0.00 in
06:17 68.0 °F 57.4 °F 30.10 in Calm   2.3 mph 69 % 0.00 in
06:22 68.1 °F 57.5 °F 30.10 in SW 0.3 mph 4.6 mph 69 % 0.00 in
06:27 68.3 °F 58.1 °F 30.10 in WSW 1.6 mph 6.0 mph 70 % 0.00 in
06:32 68.6 °F 58.4 °F 30.10 in SE 0.3 mph 2.0 mph 70 % 0.00 in
06:37 68.9 °F 58.3 °F 30.10 in West 1.3 mph 2.3 mph 69 % 0.00 in
06:42 69.2 °F 58.6 °F 30.10 in Calm   2.3 mph 69 % 0.00 in
06:47 69.6 °F 58.6 °F 30.10 in SSW 0.4 mph 1.2 mph 68 % 0.00 in
06:52 70.1 °F 59.0 °F 30.10 in WSW 1.0 mph 2.3 mph 68 % 0.00 in
06:57 70.4 °F 59.3 °F 30.10 in Calm   3.5 mph 68 % 0.00 in
07:02 70.9 °F 59.0 °F 30.10 in WSW 1.5 mph 3.0 mph 66 % 0.00 in
07:08 71.3 °F 59.4 °F 30.10 in SW 1.4 mph 3.0 mph 66 % 0.00 in
07:13 71.8 °F 59.4 °F 30.10 in SW 1.0 mph 2.3 mph 65 % 0.00 in
07:18 72.1 °F 59.7 °F 30.11 in SW 0.7 mph 2.3 mph 65 % 0.00 in
07:23 72.5 °F 59.6 °F 30.11 in WSW 2.1 mph 4.6 mph 64 % 0.00 in
07:28 72.9 °F 59.6 °F 30.11 in WSW 1.8 mph 3.5 mph 63 % 0.00 in
07:33 73.2 °F 59.8 °F 30.11 in Calm   1.2 mph 63 % 0.00 in
07:38 73.4 °F 60.0 °F 30.11 in WSW 2.3 mph 3.5 mph 63 % 0.00 in
07:43 73.6 °F 60.2 °F 30.11 in WSW 3.2 mph 5.0 mph 63 % 0.00 in
07:48 73.7 °F 60.3 °F 30.11 in SW 1.2 mph 4.6 mph 63 % 0.00 in
07:53 73.8 °F 60.9 °F 30.11 in WSW 0.4 mph 3.5 mph 64 % 0.00 in
07:59 74.0 °F 61.0 °F 30.11 in SSW 2.0 mph 3.5 mph 64 % 0.00 in
08:04 74.1 °F 61.1 °F 30.11 in SW 1.7 mph 3.5 mph 64 % 0.00 in
08:09 74.4 °F 61.9 °F 30.11 in SW 2.3 mph 3.5 mph 65 % 0.00 in
08:14 74.6 °F 62.1 °F 30.11 in SSW 0.7 mph 3.5 mph 65 % 0.00 in
08:19 74.8 °F 62.2 °F 30.10 in WSW 2.5 mph 6.0 mph 65 % 0.00 in
08:24 75.1 °F 62.5 °F 30.10 in SW 1.1 mph 2.3 mph 65 % 0.00 in
08:29 75.3 °F 62.7 °F 30.10 in SW 3.9 mph 6.9 mph 65 % 0.00 in
08:34 75.6 °F 63.0 °F 30.11 in WSW 0.7 mph 4.6 mph 65 % 0.00 in
08:39 75.8 °F 62.8 °F 30.11 in SW 3.8 mph 8.1 mph 64 % 0.00 in
08:44 76.1 °F 63.5 °F 30.11 in SW 3.3 mph 4.6 mph 65 % 0.00 in
08:50 76.4 °F 63.8 °F 30.11 in WSW 2.0 mph 4.0 mph 65 % 0.00 in
08:55 76.7 °F 63.6 °F 30.10 in WSW 0.9 mph 3.5 mph 64 % 0.00 in
09:00 77.1 °F 64.0 °F 30.11 in SW 1.5 mph 4.6 mph 64 % 0.00 in
09:05 77.6 °F 63.5 °F 30.11 in SW 0.4 mph 3.5 mph 62 % 0.00 in
09:10 78.0 °F 63.9 °F 30.11 in WSW 2.3 mph 3.5 mph 62 % 0.00 in
09:15 78.4 °F 64.8 °F 30.11 in NE 0.8 mph 2.3 mph 63 % 0.00 in
09:20 78.5 °F 64.4 °F 30.11 in NNE 3.2 mph 5.8 mph 62 % 0.00 in
09:25 78.5 °F 64.4 °F 30.11 in NNE 1.2 mph 2.3 mph 62 % 0.00 in
09:30 78.4 °F 63.4 °F 30.11 in NE 1.2 mph 2.3 mph 60 % 0.00 in
09:35 78.5 °F 64.4 °F 30.11 in NE 0.4 mph 1.2 mph 62 % 0.00 in
09:41 78.7 °F 65.0 °F 30.11 in NE 1.2 mph 2.3 mph 63 % 0.00 in
09:46 78.9 °F 64.3 °F 30.11 in NNE 0.4 mph 2.3 mph 61 % 0.00 in
09:51 79.0 °F 63.4 °F 30.11 in NNE 1.2 mph 2.3 mph 59 % 0.00 in
09:56 79.4 °F 65.2 °F 30.11 in NNE 1.6 mph 3.0 mph 62 % 0.00 in
10:01 79.8 °F 65.2 °F 30.11 in ENE 1.8 mph 3.5 mph 61 % 0.00 in
10:06 80.5 °F 66.3 °F 30.11 in ENE 0.7 mph 2.3 mph 62 % 0.00 in
10:11 81.2 °F 66.5 °F 30.11 in ENE 0.5 mph 1.2 mph 61 % 0.00 in
10:16 81.9 °F 66.6 °F 30.11 in ENE 0.4 mph 2.3 mph 60 % 0.00 in
10:21 82.6 °F 66.3 °F 30.10 in NNE 1.6 mph 3.5 mph 58 % 0.00 in
10:26 83.2 °F 66.9 °F 30.10 in NE 1.0 mph 3.5 mph 58 % 0.00 in
10:32 84.0 °F 66.6 °F 30.10 in ENE 1.2 mph 1.2 mph 56 % 0.00 in
10:37 84.8 °F 66.8 °F 30.10 in ENE 0.1 mph 2.3 mph 55 % 0.00 in
10:42 85.6 °F 66.5 °F 30.10 in NNE 1.4 mph 2.3 mph 53 % 0.00 in
10:47 85.8 °F 65.0 °F 30.10 in NE 0.1 mph 1.2 mph 50 % 0.00 in
10:52 85.8 °F 65.0 °F 30.10 in NE 1.9 mph 3.5 mph 50 % 0.00 in
10:57 86.1 °F 65.9 °F 30.10 in ENE 2.5 mph 3.5 mph 51 % 0.00 in
11:02 86.0 °F 65.2 °F 30.10 in ENE 1.5 mph 3.5 mph 50 % 0.00 in
11:07 86.1 °F 67.5 °F 30.10 in NE 2.4 mph 3.5 mph 54 % 0.00 in
11:12 86.3 °F 66.6 °F 30.10 in NE 1.0 mph 3.5 mph 52 % 0.00 in
11:17 86.6 °F 66.9 °F 30.10 in NNE 0.1 mph 1.2 mph 52 % 0.00 in
11:23 86.9 °F 67.7 °F 30.10 in NNE 2.2 mph 3.5 mph 53 % 0.00 in
11:28 87.3 °F 66.4 °F 30.10 in NE 1.3 mph 4.0 mph 50 % 0.00 in
11:38 87.1 °F 67.9 °F 30.09 in NNE 3.0 mph 3.5 mph 53 % 0.00 in
11:43 87.4 °F 68.7 °F 30.10 in NNE 1.4 mph 3.5 mph 54 % 0.00 in
11:48 88.3 °F 66.7 °F 30.10 in North 2.2 mph 4.6 mph 49 % 0.00 in
11:53 88.7 °F 66.5 °F 30.10 in NW 1.3 mph 3.5 mph 48 % 0.00 in
11:58 88.9 °F 67.3 °F 30.10 in SE 2.4 mph 4.0 mph 49 % 0.00 in
12:03 89.1 °F 66.2 °F 30.09 in South 1.0 mph 3.5 mph 47 % 0.00 in
12:08 88.7 °F 65.3 °F 30.09 in SSW 2.1 mph 5.8 mph 46 % 0.00 in
12:13 88.5 °F 66.9 °F 30.09 in SSE 0.2 mph 1.2 mph 49 % 0.00 in
12:19 88.5 °F 66.9 °F 30.10 in SSE 2.6 mph 5.8 mph 49 % 0.00 in
12:24 88.8 °F 67.8 °F 30.10 in South 3.1 mph 5.8 mph 50 % 0.00 in
12:29 89.2 °F 66.9 °F 30.09 in WSW 4.0 mph 7.0 mph 48 % 0.00 in
12:34 89.6 °F 67.9 °F 30.09 in East 0.3 mph 1.2 mph 49 % 0.00 in
12:39 89.7 °F 65.5 °F 30.09 in SE 2.1 mph 6.0 mph 45 % 0.00 in
12:44 88.6 °F 65.8 °F 30.09 in SSW 1.4 mph 3.5 mph 47 % 0.00 in
12:49 88.4 °F 67.4 °F 30.09 in SSW 0.4 mph 1.2 mph 50 % 0.00 in
12:54 88.6 °F 66.4 °F 30.09 in SW 1.8 mph 4.6 mph 48 % 0.00 in
12:59 88.5 °F 65.7 °F 30.09 in ESE 0.6 mph 7.0 mph 47 % 0.00 in
13:04 88.5 °F 66.3 °F 30.09 in SSE 1.8 mph 3.5 mph 48 % 0.00 in
13:10 88.2 °F 64.8 °F 30.09 in SSE 1.3 mph 3.5 mph 46 % 0.00 in
13:15 88.3 °F 65.5 °F 30.09 in SW 3.6 mph 4.6 mph 47 % 0.00 in
13:20 88.1 °F 64.1 °F 30.09 in South 0.9 mph 4.6 mph 45 % 0.00 in
13:25 87.8 °F 65.1 °F 30.09 in SSW 2.6 mph 4.6 mph 47 % 0.00 in
13:30 88.1 °F 65.3 °F 30.09 in SW 4.6 mph 9.2 mph 47 % 0.00 in
13:35 88.4 °F 65.0 °F 30.09 in SSE 1.7 mph 4.6 mph 46 % 0.00 in
13:40 88.5 °F 66.9 °F 30.09 in SW 3.5 mph 8.1 mph 49 % 0.00 in
13:45 89.0 °F 64.9 °F 30.09 in SE 2.7 mph 4.6 mph 45 % 0.00 in
13:50 89.4 °F 67.1 °F 30.09 in SE 2.4 mph 5.0 mph 48 % 0.00 in
13:55 89.5 °F 66.0 °F 30.09 in South 2.3 mph 6.9 mph 46 % 0.00 in
14:01 89.2 °F 63.8 °F 30.08 in SSE 3.6 mph 3.6 mph 43 % 0.00 in
14:06 89.0 °F 63.6 °F 30.09 in SE 2.1 mph 5.8 mph 43 % 0.00 in
14:11 88.4 °F 65.6 °F 30.09 in SSW 1.4 mph 3.5 mph 47 % 0.00 in
14:16 88.1 °F 62.8 °F 30.09 in SSW 2.5 mph 8.1 mph 43 % 0.00 in
14:21 88.2 °F 63.5 °F 30.08 in SW 1.9 mph 5.8 mph 44 % 0.00 in
14:26 88.5 °F 65.1 °F 30.09 in SSE 2.2 mph 4.0 mph 46 % 0.00 in
14:31 88.3 °F 61.6 °F 30.08 in SE 2.5 mph 5.8 mph 41 % 0.00 in
14:36 88.1 °F 61.4 °F 30.08 in ESE 0.9 mph 4.6 mph 41 % 0.00 in
14:41 88.2 °F 60.1 °F 30.08 in SSE 1.1 mph 6.9 mph 39 % 0.00 in
14:46 88.5 °F 61.8 °F 30.08 in SE 3.1 mph 4.6 mph 41 % 0.00 in
14:52 88.2 °F 59.4 °F 30.08 in SSE 1.9 mph 9.2 mph 38 % 0.00 in
14:57 87.7 °F 56.7 °F 30.08 in SSE 1.3 mph 10.4 mph 35 % 0.00 in
15:02 87.6 °F 56.6 °F 30.08 in SSE 0.8 mph 3.5 mph 35 % 0.00 in
15:07 87.5 °F 56.5 °F 30.08 in SW 3.4 mph 5.8 mph 35 % 0.00 in
15:12 87.9 °F 56.0 °F 30.07 in South 2.2 mph 3.5 mph 34 % 0.00 in
15:17 88.2 °F 57.1 °F 30.07 in South 2.0 mph 11.5 mph 35 % 0.00 in
15:22 88.5 °F 57.4 °F 30.07 in SSW 2.1 mph 3.5 mph 35 % 0.00 in
15:27 88.7 °F 59.1 °F 30.07 in SSE 1.9 mph 3.5 mph 37 % 0.00 in
15:32 88.3 °F 60.2 °F 30.07 in SE 7.5 mph 11.5 mph 39 % 0.00 in
15:37 87.1 °F 61.2 °F 30.06 in SE 1.4 mph 3.5 mph 42 % 0.00 in
15:43 86.5 °F 62.6 °F 30.06 in SSW 1.0 mph 5.8 mph 45 % 0.00 in
15:48 86.2 °F 63.6 °F 30.07 in SSW 5.1 mph 12.7 mph 47 % 0.00 in
15:53 85.3 °F 64.6 °F 30.07 in South 2.1 mph 8.1 mph 50 % 0.00 in
15:58 84.7 °F 65.1 °F 30.06 in SSW 0.5 mph 3.5 mph 52 % 0.00 in
16:03 84.2 °F 65.2 °F 30.06 in SSW 4.3 mph 10.4 mph 53 % 0.00 in
16:08 83.8 °F 65.9 °F 30.06 in SE 1.1 mph 3.5 mph 55 % 0.00 in
16:13 83.8 °F 66.9 °F 30.06 in West 4.0 mph 5.8 mph 57 % 0.00 in
16:18 83.5 °F 66.7 °F 30.06 in SSE 4.1 mph 8.1 mph 57 % 0.00 in
16:23 82.3 °F 67.0 °F 30.06 in SSE 2.1 mph 6.9 mph 60 % 0.00 in
16:28 81.4 °F 67.1 °F 30.06 in South 3.8 mph 9.0 mph 62 % 0.00 in
16:34 80.6 °F 67.7 °F 30.06 in SE 2.3 mph 9.0 mph 65 % 0.00 in
16:39 80.0 °F 67.6 °F 30.06 in SSW 1.9 mph 10.4 mph 66 % 0.00 in
16:44 79.8 °F 68.3 °F 30.05 in SSE 3.9 mph 8.1 mph 68 % 0.00 in
16:49 79.8 °F 68.3 °F 30.05 in SE 0.7 mph 2.3 mph 68 % 0.00 in
16:59 80.2 °F 69.5 °F 30.06 in SE 5.5 mph 8.0 mph 70 % 0.00 in
17:04 79.7 °F 69.9 °F 30.05 in SE 3.4 mph 6.9 mph 72 % 0.00 in
17:09 79.6 °F 69.4 °F 30.06 in SE 4.0 mph 8.1 mph 71 % 0.00 in
17:19 78.6 °F 69.2 °F 30.06 in SSE 6.9 mph 8.0 mph 73 % 0.00 in
17:25 77.9 °F 68.9 °F 30.06 in South 7.5 mph 12.7 mph 74 % 0.00 in
17:30 77.5 °F 68.9 °F 30.05 in SSE 3.8 mph 11.5 mph 75 % 0.00 in
17:35 77.2 °F 69.0 °F 30.05 in South 2.0 mph 9.2 mph 76 % 0.00 in
17:40 77.2 °F 69.4 °F 30.05 in SSE 1.0 mph 5.8 mph 77 % 0.00 in
17:41 77.2 °F 69.4 °F 30.05 in SE 3.9 mph 11.5 mph 77 % 0.00 in
17:46 77.1 °F 69.3 °F 30.05 in South 2.4 mph 5.8 mph 77 % 0.00 in
17:51 76.9 °F 69.1 °F 30.05 in SE 3.3 mph 8.1 mph 77 % 0.00 in
17:56 76.7 °F 69.3 °F 30.05 in South 6.7 mph 8.1 mph 78 % 0.00 in
18:01 76.6 °F 69.2 °F 30.05 in South 1.0 mph 5.8 mph 78 % 0.00 in
18:06 76.5 °F 69.1 °F 30.05 in SSW 1.4 mph 5.8 mph 78 % 0.00 in
18:12 76.3 °F 68.9 °F 30.04 in ESE 3.8 mph 11.5 mph 78 % 0.00 in
18:17 76.0 °F 69.0 °F 30.04 in SSE 2.6 mph 12.7 mph 79 % 0.00 in
18:22 75.8 °F 69.2 °F 30.04 in SSE 2.1 mph 5.0 mph 80 % 0.00 in
18:27 75.8 °F 69.2 °F 30.04 in SSE 1.6 mph 4.6 mph 80 % 0.00 in
18:32 75.7 °F 68.7 °F 30.04 in SW 1.6 mph 3.5 mph 79 % 0.00 in
18:37 75.6 °F 69.0 °F 30.04 in WSW 0.2 mph 1.2 mph 80 % 0.00 in
18:42 75.5 °F 69.3 °F 30.04 in SSE 1.1 mph 6.9 mph 81 % 0.00 in
18:47 75.1 °F 68.9 °F 30.04 in SE 4.6 mph 10.4 mph 81 % 0.00 in
18:52 74.7 °F 68.5 °F 30.04 in SSE 2.9 mph 9.2 mph 81 % 0.00 in
18:57 74.4 °F 68.5 °F 30.05 in SE 1.3 mph 3.5 mph 82 % 0.00 in
19:13 74.2 °F 68.7 °F 30.05 in SE 0.6 mph 3.5 mph 83 % 0.00 in
19:18 74.0 °F 68.5 °F 30.05 in SE 2.1 mph 5.0 mph 83 % 0.00 in
19:23 73.9 °F 68.8 °F 30.05 in Calm   3.5 mph 84 % 0.00 in
19:28 73.8 °F 68.7 °F 30.05 in SE 0.2 mph 1.2 mph 84 % 0.00 in
19:33 73.6 °F 68.5 °F 30.05 in SSE 3.2 mph 5.8 mph 84 % 0.00 in
19:38 73.4 °F 68.3 °F 30.05 in WNW 0.5 mph 3.5 mph 84 % 0.00 in
19:43 73.1 °F 68.3 °F 30.05 in SE 0.8 mph 3.5 mph 85 % 0.00 in
19:48 72.9 °F 68.1 °F 30.05 in SE 0.4 mph 3.5 mph 85 % 0.00 in
19:54 72.7 °F 68.3 °F 30.05 in SSE 0.9 mph 3.5 mph 86 % 0.00 in
19:59 72.5 °F 68.1 °F 30.05 in SSE 1.4 mph 3.5 mph 86 % 0.00 in
20:14 72.2 °F 68.1 °F 30.05 in SSE 0.9 mph 2.3 mph 87 % 0.00 in
20:19 72.1 °F 68.0 °F 30.05 in Calm   1.0 mph 87 % 0.00 in
20:24 72.0 °F 68.2 °F 30.05 in Calm   1.2 mph 88 % 0.00 in
20:29 71.9 °F 68.2 °F 30.05 in SSE 0.7 mph 4.0 mph 88 % 0.00 in
20:34 71.7 °F 68.0 °F 30.05 in SSE 2.1 mph 4.0 mph 88 % 0.00 in
20:39 71.6 °F 68.2 °F 30.05 in SE 0.1 mph 3.5 mph 89 % 0.00 in
20:45 71.5 °F 68.1 °F 30.05 in SSE 1.8 mph 2.3 mph 89 % 0.00 in
20:50 71.4 °F 68.0 °F 30.05 in SE 0.3 mph 2.0 mph 89 % 0.00 in
20:55 71.4 °F 68.0 °F 30.05 in Calm   1.0 mph 89 % 0.00 in
21:00 71.4 °F 68.3 °F 30.05 in SE 0.4 mph 2.3 mph 90 % 0.00 in
21:05 71.3 °F 68.2 °F 30.05 in SSE 0.5 mph 3.5 mph 90 % 0.00 in
21:10 71.3 °F 68.2 °F 30.05 in South 3.8 mph 5.8 mph 90 % 0.00 in
21:15 71.3 °F 68.2 °F 30.05 in SSE 0.1 mph 1.2 mph 90 % 0.00 in
21:20 71.3 °F 68.2 °F 30.06 in SE 2.8 mph 3.5 mph 90 % 0.00 in
21:25 71.3 °F 68.2 °F 30.05 in SE 0.5 mph 3.5 mph 90 % 0.00 in
21:30 71.3 °F 68.2 °F 30.05 in SSW 3.2 mph 8.1 mph 90 % 0.00 in
21:36 71.3 °F 68.2 °F 30.05 in SSE 3.6 mph 6.0 mph 90 % 0.00 in
21:46 71.1 °F 68.3 °F 30.06 in West 1.4 mph 4.6 mph 91 % 0.00 in
21:51 71.1 °F 68.3 °F 30.05 in SE 1.0 mph 3.5 mph 91 % 0.00 in
22:01 71.0 °F 68.2 °F 30.05 in SSE 1.0 mph 2.0 mph 91 % 0.00 in
22:06 71.0 °F 68.6 °F 30.05 in SSW 0.7 mph 3.5 mph 92 % 0.00 in
22:11 70.9 °F 68.5 °F 30.05 in SSW 0.8 mph 3.0 mph 92 % 0.00 in
22:16 70.7 °F 68.3 °F 30.05 in SE 3.4 mph 5.8 mph 92 % 0.00 in
22:27 70.5 °F 68.1 °F 30.04 in SE 1.4 mph 8.1 mph 92 % 0.00 in
22:32 70.4 °F 68.0 °F 30.04 in SSE 0.5 mph 8.1 mph 92 % 0.00 in
22:42 70.1 °F 67.7 °F 30.05 in SE 1.6 mph 4.0 mph 92 % 0.00 in
22:47 70.1 °F 67.7 °F 30.05 in Calm     92 % 0.00 in
22:52 70.1 °F 67.7 °F 30.05 in SE 1.2 mph 2.3 mph 92 % 0.00 in
22:57 70.0 °F 67.6 °F 30.05 in Calm   2.3 mph 92 % 0.00 in
23:02 70.0 °F 67.6 °F 30.05 in Calm   1.0 mph 92 % 0.00 in
23:07 70.0 °F 67.6 °F 30.04 in Calm     92 % 0.00 in
23:23 69.9 °F 67.5 °F 30.04 in SSE 0.2 mph 3.5 mph 92 % 0.00 in
23:28 69.9 °F 67.5 °F 30.04 in SSE 0.1 mph 3.5 mph 92 % 0.00 in
23:33 69.9 °F 67.5 °F 30.04 in South 0.2 mph 2.3 mph 92 % 0.00 in
23:38 69.8 °F 67.4 °F 30.04 in SSE 0.2 mph 1.2 mph 92 % 0.00 in
23:43 69.8 °F 67.7 °F 30.04 in South 0.7 mph 2.3 mph 93 % 0.00 in
23:48 69.8 °F 67.7 °F 30.04 in SE 0.6 mph 2.3 mph 93 % 0.00 in
23:53 69.8 °F 67.7 °F 30.04 in SSW 0.9 mph 3.5 mph 93 % 0.00 in
23:58 69.8 °F 67.7 °F 30.03 in SSE 0.8 mph 3.5 mph 93 % 0.00 in
Crab Meadow Weather
Compliments of Weather Underground - 2.75 mb

Script developed by  Jim McMurry - jmcmurry@mwt.net Adapted for the template by  Wim van der Kuil - Leuven-Template.eu

Extremes: Alaska and Hawaii have the same heat record. In Pahala, Hawaii the temperature on April 27, 1931 was 100 degrees F. Alaska's state heat record is also 100 degrees F. on June 27, 1915 at Fort Yukon.